Flight Track Log - Related Links

Times and Time Zones

All times are in EDT time to prevent confusion due to time zone crossing. See the AWE1821 flight status page for this flight to view local times or setup timezone preferences in your user account.

Time Position Orientation Groundspeed Altitude Reporting Facility
EDT Latitude Longitude Course Direction KTS MPH feet Rate Location/Type
Thu 06:22:35 PM 35.2311 -80.9569 344° North 170 196 1,400  Level Atlanta Center
Thu 06:24:37 PM 35.3467 -80.9986 344° North 282 325 5,500 1,870 Climbing Atlanta Center
Thu 06:24:53 PM 35.3633 -80.9928 16° North 275 316 5,700 1,895 Climbing Atlanta Center
Thu 06:25:53 PM 35.4319 -80.9775 10° North 289 333 7,900 2,300 Climbing Atlanta Center
Thu 06:26:53 PM 35.5056 -81.0081 341° North 271 312 10,300 2,367 Climbing Atlanta Center
Thu 06:28:00 PM 35.6331 -80.9833 North  Level FlightAware Approximate
Thu 06:28:53 PM 35.6850 -81.0933 North 325 374 15,000  Level Atlanta Center
Thu 06:29:53 PM 35.7794 -81.1233 346° North 339 390 17,100 2,000 Climbing Atlanta Center
Thu 06:30:53 PM 35.8783 -81.1478 349° North 349 402 19,000 1,800 Climbing Atlanta Center
Thu 06:31:53 PM 35.9825 -81.1494 359° North 361 415 20,700 1,750 Climbing Atlanta Center
Thu 06:32:53 PM 36.0908 -81.1481 North 373 429 22,500 1,550 Climbing Atlanta Center
Thu 06:33:53 PM 36.2014 -81.1467 North 384 442 23,800 1,300 Climbing Atlanta Center
Thu 06:34:53 PM 36.3161 -81.1450 North 396 456 25,100 1,250 Climbing Atlanta Center
Thu 06:35:53 PM 36.4308 -81.1436 North 407 468 26,300 975 Climbing Atlanta Center
Thu 06:38:53 PM 36.7811 -81.1386 North 431 496 29,000 822 Climbing Atlanta Center
Thu 06:41:07 PM 37.0858 -81.1336 North 483 556 30,600 827 Climbing Indianapolis Center
Thu 06:42:09 PM 37.2233 -81.1319 North 490 564 31,700 968 Climbing Indianapolis Center
Thu 06:43:11 PM 37.3597 -81.1308 360° North 490 564 32,600 746 Climbing Indianapolis Center
Thu 06:45:14 PM 37.6650 -81.1247 North 497 572 34,000 292 Climbing Indianapolis Center
Thu 06:48:19 PM 38.0622 -81.2269 345° North 485 558 34,100  Climbing Indianapolis Center
Thu 06:49:21 PM 38.1897 -81.2783 342° North 484 557 34,000 -48 Descending Indianapolis Center
Thu 06:50:23 PM 38.3169 -81.3247 344° North 482 555 34,000  Level Indianapolis Center
Thu 06:51:24 PM 38.4444 -81.3725 344° North 481 554 34,000  Level Indianapolis Center
Thu 06:52:26 PM 38.5967 -81.4294 344° North 480 552 34,000  Level Indianapolis Center
Thu 06:53:28 PM 38.7178 -81.4753 344° North 480 552 34,000  Level Indianapolis Center
Thu 06:54:30 PM 38.8469 -81.5250 343° North 491 565 34,000  Level Indianapolis Center
Thu 06:55:31 PM 38.9733 -81.5736 343° North 488 562 34,000  Level Indianapolis Center
Thu 06:56:33 PM 39.1017 -81.6236 343° North 486 559 34,000  Level Indianapolis Center
Thu 06:57:35 PM 39.2558 -81.6831 343° North 485 558 34,000  Level Indianapolis Center
Thu 06:58:36 PM 39.3833 -81.7339 343° North 483 556 34,000  Level Indianapolis Center
Thu 06:59:38 PM 39.5125 -81.7836 343° North 483 556 34,000  Level Indianapolis Center
Thu 07:00:40 PM 39.6403 -81.8347 343° North 483 556 34,000  Level Indianapolis Center
Thu 07:01:41 PM 39.7619 -81.8728 346° North 483 556 34,000 -98 Level Indianapolis Center
Thu 07:02:43 PM 39.9242 -81.9000 353° North 486 559 33,800 -732 Descending Indianapolis Center
Thu 07:03:44 PM 40.0583 -81.9242 352° North 487 560 32,500 -1,268 Descending Indianapolis Center
Thu 07:04:46 PM 40.1947 -81.9497 352° North 490 564 31,200 -833 Descending Indianapolis Center
Thu 07:06:44 PM 40.4614 -81.9967 353° North 490 564 30,000 -400 Descending Cleveland Center
Thu 07:07:46 PM 40.5967 -82.0225 352° North 487 560 30,000 -474 Level Cleveland Center
Thu 07:09:54 PM 40.8886 -82.0758 352° North 485 558 28,500 -478 Descending Indianapolis Center
Thu 07:11:00 PM 41.0114 -82.0962 353° North  Level FlightAware Approximate
Thu 07:11:57 PM 41.1500 -82.1242 353° North 469 540 28,000  Level Indianapolis Center
Thu 07:13:55 PM 41.3753 -82.1961 347° North 443 510 25,600 -1,609 Descending Cleveland Center
Thu 07:14:56 PM 41.4461 -82.3094 310° West 396 456 23,200 -2,537 Descending Cleveland Center
Thu 07:15:58 PM 41.5231 -82.4375 309° West 379 436 20,400 -2,667 Descending Cleveland Center
Thu 07:16:17 PM 41.5417 -82.4742 304° West 374 430 19,600 -2,520 Descending Cleveland Center
Thu 07:16:48 PM 41.5769 -82.5344 308° West 374 430 18,300 -2,738 Descending Cleveland Center
Thu 07:18:00 PM 41.6511 -82.6533 310° West 358 412 14,900 -2,852 Descending Cleveland Center
Thu 07:18:50 PM 41.6986 -82.7369 307° West 343 395 12,500 -2,613 Descending Cleveland Center
Thu 07:19:02 PM 41.7103 -82.7533 314° West 346 398 12,200 -600 Descending Cleveland Center
Thu 07:19:50 PM 41.7650 -82.8294 314° West 327 376 11,900 -585 Descending Cleveland Center
Thu 07:21:05 PM 41.8378 -82.9139 319° Northwest 305 351 11,000 -1,033 Descending Cleveland Center
Thu 07:21:52 PM 41.8639 -82.9911 294° West 270 311 9,800 -1,556 Descending Cleveland Center
Thu 07:22:53 PM 41.8944 -83.0878 293° West 270 311 8,200 -1,421 Descending Cleveland Center
Thu 07:23:08 PM 41.8983 -83.0981 297° West 271 312 8,000 -1,658 Descending Cleveland Center
Thu 07:24:09 PM 41.9308 -83.1864 296° West 265 305 6,100 -1,860 Descending Cleveland Center
Thu 07:24:48 PM 41.9567 -83.2592 296° West 262 302 4,900 -1,355 Descending Cleveland Center
Thu 07:25:11 PM 41.9625 -83.2739 298° West 265 305 4,700 -1,082 Descending Cleveland Center
Thu 07:25:49 PM 41.9861 -83.3389 296° West 230 265 3,800 -836 Descending Cleveland Center
Thu 07:27:13 PM 42.0589 -83.4067 325° Northwest 234 269 3,000 -443 Descending Cleveland Center
Thu 07:27:51 PM 42.0947 -83.4244 340° North 209 241 2,900 -97 Descending Cleveland Center
Thu 07:28:15 PM 42.1139 -83.4242 North 218 251 2,900 -689 Level Cleveland Center
Thu 07:28:52 PM 42.1461 -83.4094 19° North 180 207 2,200 -1,180 Descending Cleveland Center
Thu 07:29:16 PM 42.1619 -83.4011 21° North 197 227 1,700 -1,200 Descending Cleveland Center
Thu 07:29:52 PM 42.1858 -83.3839 28° Northeast 152 175 1,000 -968 Descending Cleveland Center
Thu 07:30:18 PM 42.1983 -83.3739 31° Northeast 171 197 700 -692 Descending Cleveland Center
Thu 07:32:00 PM 42.2000 -83.3500 323° Northwest  Level FlightAware Approximate

Login

Don't have an account? Register now (free) for customized features, flight alerts, and more!